Terminal Aerodrome Forecast
Issued by NWS

Home | Current Version | Previous Version | Text Only | Print | Product List | Glossary On
Versions: 1 2 3 4 5 6 7 8 9 10 11 12 13 14 15 16 17 18 19 20 21 22
000
FTUS43 KSGF 200500
TAFJLN
TAF
KJLN 200520Z 2006/2106 09010KT P6SM -SHRA BKN030 OVC090
     FM200700 10011KT 6SM -RA BR BKN015 OVC050
      TEMPO 2007/2010 5SM -TSRA BR BKN009 OVC015CB
     FM201000 11011KT 6SM -RA BR OVC007
     FM201600 36009KT 6SM BR OVC007
     FM202000 36009KT P6SM OVC010=

USA.gov is the U.S. government's official web portal to all federal, state and local government web resources and services.